Aegean Pride — ELXK8 — position and weather

sailwx.info

Track history (hours):
 
Tides and Currents Weather Stations Pressure Air Temp Water Temp Dewpoint Dewpoint Depression Visibility Wind Speed Wind Dir Waves Ship Positions

Aegean Pride

Last reported at 2017-Feb-19 15:33 UTC. Time now 2017-Feb-22 08:21 UTC.
Position N 01°12' E 103°54'.

Length 244 m; draft 14.1 m.

Type: Ship. MMSI: 636011186.

Date/timePositionNaut miles runAvg speedWind from/ knotsBaromVisibWave heightAir tempDewpointWater temp
2017-Feb-19 15:33N 01°12' E 103°54'7 7.3
2017-Feb-19 14:33N 01°09' E 103°47'8 8.3
2017-Feb-19 13:33N 01°04' E 103°41'9 8.1
2017-Feb-19 12:30N 01°06' E 103°33'8 7.9
2017-Feb-19 11:26N 01°15' E 103°34'0 0.0
2017-Feb-18 20:19N 01°14' E 103°35'0 0.2
2017-Feb-18 19:25N 01°15' E 103°35'0 0.0
2017-Feb-18 15:28N 01°15' E 103°35'0 0.1
2017-Feb-18 14:31N 01°14' E 103°34'0 0.1
2017-Feb-18 13:28N 01°14' E 103°34'0 0.1
2017-Feb-18 10:13N 01°14' E 103°35'0 0.1
2017-Feb-18 05:10N 01°15' E 103°35'0 0.1
2017-Feb-18 02:10N 01°14' E 103°34'0 0.1
2017-Feb-17 22:07N 01°14' E 103°35'0 0.1
2017-Feb-17 21:31N 01°14' E 103°35'0 0.1
2017-Feb-17 20:07N 01°14' E 103°35'0 0.2
2017-Feb-17 19:31N 01°15' E 103°35'0 0.0
2017-Feb-17 15:31N 01°15' E 103°35'0 0.1
2017-Feb-17 14:22N 01°14' E 103°34'0 0.0
2017-Feb-17 13:28N 01°14' E 103°34'0 0.1
2017-Feb-17 11:31N 01°14' E 103°35'0 0.2
2017-Feb-17 10:31N 01°14' E 103°35'0 0.1
2017-Feb-17 09:22N 01°14' E 103°35'0 0.0
2017-Feb-17 03:13N 01°15' E 103°35'0 0.1
2017-Feb-17 02:19N 01°15' E 103°34'0 0.0
2017-Feb-16 22:19N 01°14' E 103°34'0 0.2
2017-Feb-16 21:31N 01°14' E 103°35'0 0.1
2017-Feb-16 20:19N 01°14' E 103°35'0 0.1
2017-Feb-16 19:10N 01°14' E 103°35'0 0.1
2017-Feb-16 18:28N 01°14' E 103°35'0 0.1
2017-Feb-16 12:19N 01°14' E 103°34'0 0.1
2017-Feb-16 11:34N 01°14' E 103°34'2 1.9
2017-Feb-16 10:33N 01°14' E 103°33'0 0.1
2017-Feb-16 09:16N 01°14' E 103°33'0 0.0
2017-Feb-16 06:28N 01°14' E 103°33'0 0.0
2017-Feb-16 04:13N 01°14' E 103°33'0 0.0
2017-Feb-16 03:31N 01°14' E 103°33'0 0.0
2017-Feb-15 23:31N 01°14' E 103°33'0 0.0
2017-Feb-15 22:25N 01°14' E 103°33'0 0.1
2017-Feb-15 21:31N 01°14' E 103°33'0 0.1
2017-Feb-15 19:25N 01°14' E 103°33'0 0.1
2017-Feb-15 18:10N 01°14' E 103°33'0 0.1
2017-Feb-15 16:28N 01°14' E 103°33'0 0.1
2017-Feb-15 15:31N 01°14' E 103°33'0 0.0
2017-Feb-15 14:31N 01°14' E 103°33'0 0.0
2017-Feb-15 13:25N 01°14' E 103°33'0 0.0
2017-Feb-15 11:28N 01°14' E 103°33'0 0.0
2017-Feb-15 10:22N 01°14' E 103°33'0 0.0
2017-Feb-15 09:31N 01°14' E 103°33'0 0.0
2017-Feb-15 08:10N 01°14' E 103°33'0 0.0
2017-Feb-15 03:31N 01°14' E 103°33'0 0.0
2017-Feb-15 01:31N 01°14' E 103°33'0 0.0
2017-Feb-14 23:22N 01°14' E 103°33'0 0.0
2017-Feb-14 22:28N 01°14' E 103°33'0 0.1
2017-Feb-14 19:25N 01°14' E 103°33'0 0.1
2017-Feb-14 17:04N 01°14' E 103°33'0 0.1
2017-Feb-14 14:28N 01°14' E 103°33'0 0.0
2017-Feb-14 13:31N 01°14' E 103°33'0 0.0
2017-Feb-14 12:31N 01°14' E 103°33'0 0.0
2017-Feb-14 11:31N 01°14' E 103°33'0 0.0
2017-Feb-14 10:31N 01°14' E 103°33'0 0.0
2017-Feb-14 09:22N 01°14' E 103°33'0 0.4
2017-Feb-14 08:33N 01°14' E 103°32'4 2.7
2017-Feb-14 07:10N 01°15' E 103°29'0 0.0
2017-Feb-14 06:32N 01°15' E 103°29'0 0.0
2017-Feb-14 05:29N 01°15' E 103°29'0 0.0
2017-Feb-14 03:19N 01°15' E 103°29'0 0.1
2017-Feb-14 02:22N 01°15' E 103°29'0 0.1
2017-Feb-14 01:28N 01°15' E 103°29'0 0.0
2017-Feb-14 00:32N 01°15' E 103°29'0 0.0
2017-Feb-13 23:32N 01°15' E 103°29'0 0.0
2017-Feb-13 22:32N 01°15' E 103°29'0 0.1
2017-Feb-13 21:26N 01°15' E 103°29'0 0.1
2017-Feb-13 20:23N 01°15' E 103°29'0 0.1
2017-Feb-13 19:04N 01°15' E 103°29'0 0.0
2017-Feb-13 17:31N 01°15' E 103°29'0 0.0
2017-Feb-13 16:31N 01°15' E 103°29'0 0.1
2017-Feb-13 15:32N 01°15' E 103°29'0 0.1
2017-Feb-13 14:20N 01°15' E 103°29'0 0.1
2017-Feb-13 13:32N 01°15' E 103°29'0 0.0
2017-Feb-13 12:32N 01°15' E 103°29'0 0.0
2017-Feb-13 11:29N 01°15' E 103°29'0 0.0
2017-Feb-13 10:32N 01°15' E 103°29'0 0.0
2017-Feb-13 09:14N 01°15' E 103°29'0 0.1
2017-Feb-13 08:31N 01°15' E 103°29'0 0.0
2017-Feb-13 07:07N 01°15' E 103°29'0 0.1
2017-Feb-13 06:11N 01°15' E 103°29'0 0.0
2017-Feb-13 05:11N 01°15' E 103°29'0 0.1
2017-Feb-13 03:33N 01°15' E 103°29'6 6.3
2017-Feb-13 02:33N 01°12' E 103°34'1111.0
2017-Feb-13 01:33N 01°08' E 103°45'1111.1
2017-Feb-13 00:34N 01°14' E 103°54'1 0.9
2017-Feb-12 23:29N 01°15' E 103°54'0 0.0
2017-Feb-12 22:32N 01°15' E 103°54'0 0.0
2017-Feb-12 21:32N 01°15' E 103°54'0 0.0
2017-Feb-12 20:29N 01°15' E 103°54'0 0.0
2017-Feb-12 19:32N 01°15' E 103°54'0 0.0
2017-Feb-12 18:29N 01°15' E 103°54'0 0.0
2017-Feb-12 17:32N 01°15' E 103°54'0 0.0
2017-Feb-12 16:32N 01°15' E 103°54'0 0.0
2017-Feb-12 15:32N 01°15' E 103°54'0 0.0
2017-Feb-12 14:23N 01°15' E 103°54'0 0.0
2017-Feb-12 13:32N 01°15' E 103°54'0 0.0
2017-Feb-12 12:26N 01°15' E 103°54'0 0.1
2017-Feb-12 11:29N 01°15' E 103°54'0 0.1
2017-Feb-12 10:32N 01°15' E 103°54'0 0.1
2017-Feb-12 09:32N 01°15' E 103°54'0 0.1
2017-Feb-12 08:26N 01°15' E 103°54'0 0.0
2017-Feb-12 07:32N 01°15' E 103°54'0 0.2
2017-Feb-12 06:26N 01°15' E 103°54'0 0.1
2017-Feb-12 05:32N 01°15' E 103°54'0 0.0
2017-Feb-12 04:32N 01°15' E 103°54'0 0.0
2017-Feb-12 03:26N 01°15' E 103°54'0 0.0
2017-Feb-12 02:32N 01°15' E 103°54'0 0.0
2017-Feb-12 01:26N 01°15' E 103°54'0 0.0
2017-Feb-12 00:32N 01°15' E 103°54'0 0.0
2017-Feb-11 23:32N 01°15' E 103°54'0 0.0
2017-Feb-11 22:32N 01°15' E 103°54'0 0.0
2017-Feb-11 21:32N 01°15' E 103°54'0 0.0
2017-Feb-11 20:32N 01°15' E 103°54'0 0.0
2017-Feb-11 19:32N 01°15' E 103°54'0 0.0
2017-Feb-11 18:32N 01°15' E 103°54'0 0.0
2017-Feb-11 17:26N 01°15' E 103°54'0 0.0
2017-Feb-11 16:32N 01°15' E 103°54'0 0.0
2017-Feb-11 15:32N 01°15' E 103°54'0 0.0
2017-Feb-11 14:32N 01°15' E 103°54'0 0.0
2017-Feb-11 13:32N 01°15' E 103°54'0 0.0
2017-Feb-11 12:32N 01°15' E 103°54'0 0.0
2017-Feb-11 11:32N 01°15' E 103°54'0 0.2
2017-Feb-11 10:32N 01°15' E 103°54'0 0.0
2017-Feb-11 09:26N 01°15' E 103°54'0 0.1
2017-Feb-11 08:32N 01°15' E 103°54'0 0.0
2017-Feb-11 07:29N 01°15' E 103°54'0 0.1
2017-Feb-11 06:32N 01°15' E 103°54'0 0.1
2017-Feb-11 05:32N 01°15' E 103°54'0 0.1
2017-Feb-11 04:32N 01°15' E 103°54'0 0.0
2017-Feb-11 03:32N 01°15' E 103°54'0 0.0
2017-Feb-11 02:29N 01°15' E 103°54'0 0.1
2017-Feb-11 01:32N 01°15' E 103°54'0 0.0
2017-Feb-11 00:29N 01°15' E 103°54'0 0.0
2017-Feb-10 23:32N 01°15' E 103°54'0 0.0
2017-Feb-10 22:29N 01°15' E 103°54'0 0.0
2017-Feb-10 21:32N 01°15' E 103°54'0 0.0
2017-Feb-10 20:32N 01°15' E 103°54'0 0.0
2017-Feb-10 19:32N 01°15' E 103°54'0 0.0
2017-Feb-10 18:32N 01°15' E 103°54'0 0.0
2017-Feb-10 17:32N 01°15' E 103°54'0 0.0
2017-Feb-10 16:32N 01°15' E 103°54'0 0.1
2017-Feb-10 15:26N 01°15' E 103°54'0 0.1
2017-Feb-10 14:26N 01°15' E 103°54'0 0.0
2017-Feb-10 13:32N 01°15' E 103°54'0 0.0
2017-Feb-10 12:32N 01°15' E 103°54'0 0.1
2017-Feb-10 11:32N 01°15' E 103°54'0 0.2
2017-Feb-10 10:29N 01°15' E 103°54'0 0.1
2017-Feb-10 09:26N 01°15' E 103°54'0 0.1
2017-Feb-10 08:26N 01°15' E 103°54'0 0.0
2017-Feb-10 07:26N 01°15' E 103°54'0 0.0
2017-Feb-10 06:32N 01°15' E 103°54'0 0.0
2017-Feb-10 05:29N 01°15' E 103°54'0 0.1
2017-Feb-10 04:32N 01°15' E 103°54'0 0.1
2017-Feb-10 03:29N 01°15' E 103°54'0 0.1
2017-Feb-10 02:32N 01°15' E 103°54'0 0.1
2017-Feb-10 01:29N 01°15' E 103°54'3 3.5
2017-Feb-10 00:33N 01°16' E 103°57'6 6.0
2017-Feb-09 23:32N 01°16' E 104°03'  
Track history (hours):
 
Tides and Currents Weather Stations Pressure Air Temp Water Temp Dewpoint Dewpoint Depression Visibility Wind Speed Wind Dir Waves Ship Positions

Aegean Pride

Last reported at 2017-Feb-19 15:33 UTC. Time now 2017-Feb-22 08:21 UTC.
Position N 01°12' E 103°54'.

Length 244 m; draft 14.1 m.

Type: Ship. MMSI: 636011186.

Date/timePositionNaut miles runAvg speedWind from/ knotsBaromVisibWave heightAir tempDewpointWater temp
2017-Feb-19 15:33N 01°12' E 103°54'7 7.3
2017-Feb-19 14:33N 01°09' E 103°47'8 8.3
2017-Feb-19 13:33N 01°04' E 103°41'9 8.1
2017-Feb-19 12:30N 01°06' E 103°33'8 7.9
2017-Feb-19 11:26N 01°15' E 103°34'0 0.0
2017-Feb-18 20:19N 01°14' E 103°35'0 0.2
2017-Feb-18 19:25N 01°15' E 103°35'0 0.0
2017-Feb-18 15:28N 01°15' E 103°35'0 0.1
2017-Feb-18 14:31N 01°14' E 103°34'0 0.1
2017-Feb-18 13:28N 01°14' E 103°34'0 0.1
2017-Feb-18 10:13N 01°14' E 103°35'0 0.1
2017-Feb-18 05:10N 01°15' E 103°35'0 0.1
2017-Feb-18 02:10N 01°14' E 103°34'0 0.1
2017-Feb-17 22:07N 01°14' E 103°35'0 0.1
2017-Feb-17 21:31N 01°14' E 103°35'0 0.1
2017-Feb-17 20:07N 01°14' E 103°35'0 0.2
2017-Feb-17 19:31N 01°15' E 103°35'0 0.0
2017-Feb-17 15:31N 01°15' E 103°35'0 0.1
2017-Feb-17 14:22N 01°14' E 103°34'0 0.0
2017-Feb-17 13:28N 01°14' E 103°34'0 0.1
2017-Feb-17 11:31N 01°14' E 103°35'0 0.2
2017-Feb-17 10:31N 01°14' E 103°35'0 0.1
2017-Feb-17 09:22N 01°14' E 103°35'0 0.0
2017-Feb-17 03:13N 01°15' E 103°35'0 0.1
2017-Feb-17 02:19N 01°15' E 103°34'0 0.0
2017-Feb-16 22:19N 01°14' E 103°34'0 0.2
2017-Feb-16 21:31N 01°14' E 103°35'0 0.1
2017-Feb-16 20:19N 01°14' E 103°35'0 0.1
2017-Feb-16 19:10N 01°14' E 103°35'0 0.1
2017-Feb-16 18:28N 01°14' E 103°35'0 0.1
2017-Feb-16 12:19N 01°14' E 103°34'0 0.1
2017-Feb-16 11:34N 01°14' E 103°34'2 1.9
2017-Feb-16 10:33N 01°14' E 103°33'0 0.1
2017-Feb-16 09:16N 01°14' E 103°33'0 0.0
2017-Feb-16 06:28N 01°14' E 103°33'0 0.0
2017-Feb-16 04:13N 01°14' E 103°33'0 0.0
2017-Feb-16 03:31N 01°14' E 103°33'0 0.0
2017-Feb-15 23:31N 01°14' E 103°33'0 0.0
2017-Feb-15 22:25N 01°14' E 103°33'0 0.1
2017-Feb-15 21:31N 01°14' E 103°33'0 0.1
2017-Feb-15 19:25N 01°14' E 103°33'0 0.1
2017-Feb-15 18:10N 01°14' E 103°33'0 0.1
2017-Feb-15 16:28N 01°14' E 103°33'0 0.1
2017-Feb-15 15:31N 01°14' E 103°33'0 0.0
2017-Feb-15 14:31N 01°14' E 103°33'0 0.0
2017-Feb-15 13:25N 01°14' E 103°33'0 0.0
2017-Feb-15 11:28N 01°14' E 103°33'0 0.0
2017-Feb-15 10:22N 01°14' E 103°33'0 0.0
2017-Feb-15 09:31N 01°14' E 103°33'0 0.0
2017-Feb-15 08:10N 01°14' E 103°33'0 0.0
2017-Feb-15 03:31N 01°14' E 103°33'0 0.0
2017-Feb-15 01:31N 01°14' E 103°33'0 0.0
2017-Feb-14 23:22N 01°14' E 103°33'0 0.0
2017-Feb-14 22:28N 01°14' E 103°33'0 0.1
2017-Feb-14 19:25N 01°14' E 103°33'0 0.1
2017-Feb-14 17:04N 01°14' E 103°33'0 0.1
2017-Feb-14 14:28N 01°14' E 103°33'0 0.0
2017-Feb-14 13:31N 01°14' E 103°33'0 0.0
2017-Feb-14 12:31N 01°14' E 103°33'0 0.0
2017-Feb-14 11:31N 01°14' E 103°33'0 0.0
2017-Feb-14 10:31N 01°14' E 103°33'0 0.0
2017-Feb-14 09:22N 01°14' E 103°33'0 0.4
2017-Feb-14 08:33N 01°14' E 103°32'4 2.7
2017-Feb-14 07:10N 01°15' E 103°29'0 0.0
2017-Feb-14 06:32N 01°15' E 103°29'0 0.0
2017-Feb-14 05:29N 01°15' E 103°29'0 0.0
2017-Feb-14 03:19N 01°15' E 103°29'0 0.1
2017-Feb-14 02:22N 01°15' E 103°29'0 0.1
2017-Feb-14 01:28N 01°15' E 103°29'0 0.0
2017-Feb-14 00:32N 01°15' E 103°29'0 0.0
2017-Feb-13 23:32N 01°15' E 103°29'0 0.0
2017-Feb-13 22:32N 01°15' E 103°29'0 0.1
2017-Feb-13 21:26N 01°15' E 103°29'0 0.1
2017-Feb-13 20:23N 01°15' E 103°29'0 0.1
2017-Feb-13 19:04N 01°15' E 103°29'0 0.0
2017-Feb-13 17:31N 01°15' E 103°29'0 0.0
2017-Feb-13 16:31N 01°15' E 103°29'0 0.1
2017-Feb-13 15:32N 01°15' E 103°29'0 0.1
2017-Feb-13 14:20N 01°15' E 103°29'0 0.1
2017-Feb-13 13:32N 01°15' E 103°29'0 0.0
2017-Feb-13 12:32N 01°15' E 103°29'0 0.0
2017-Feb-13 11:29N 01°15' E 103°29'0 0.0
2017-Feb-13 10:32N 01°15' E 103°29'0 0.0
2017-Feb-13 09:14N 01°15' E 103°29'0 0.1
2017-Feb-13 08:31N 01°15' E 103°29'0 0.0
2017-Feb-13 07:07N 01°15' E 103°29'0 0.1
2017-Feb-13 06:11N 01°15' E 103°29'0 0.0
2017-Feb-13 05:11N 01°15' E 103°29'0 0.1
2017-Feb-13 03:33N 01°15' E 103°29'6 6.3
2017-Feb-13 02:33N 01°12' E 103°34'1111.0
2017-Feb-13 01:33N 01°08' E 103°45'1111.1
2017-Feb-13 00:34N 01°14' E 103°54'1 0.9
2017-Feb-12 23:29N 01°15' E 103°54'0 0.0
2017-Feb-12 22:32N 01°15' E 103°54'0 0.0
2017-Feb-12 21:32N 01°15' E 103°54'0 0.0
2017-Feb-12 20:29N 01°15' E 103°54'0 0.0
2017-Feb-12 19:32N 01°15' E 103°54'0 0.0
2017-Feb-12 18:29N 01°15' E 103°54'0 0.0
2017-Feb-12 17:32N 01°15' E 103°54'0 0.0
2017-Feb-12 16:32N 01°15' E 103°54'0 0.0
2017-Feb-12 15:32N 01°15' E 103°54'0 0.0
2017-Feb-12 14:23N 01°15' E 103°54'0 0.0
2017-Feb-12 13:32N 01°15' E 103°54'0 0.0
2017-Feb-12 12:26N 01°15' E 103°54'0 0.1
2017-Feb-12 11:29N 01°15' E 103°54'0 0.1
2017-Feb-12 10:32N 01°15' E 103°54'0 0.1
2017-Feb-12 09:32N 01°15' E 103°54'0 0.1
2017-Feb-12 08:26N 01°15' E 103°54'0 0.0
2017-Feb-12 07:32N 01°15' E 103°54'0 0.2
2017-Feb-12 06:26N 01°15' E 103°54'0 0.1
2017-Feb-12 05:32N 01°15' E 103°54'0 0.0
2017-Feb-12 04:32N 01°15' E 103°54'0 0.0
2017-Feb-12 03:26N 01°15' E 103°54'0 0.0
2017-Feb-12 02:32N 01°15' E 103°54'0 0.0
2017-Feb-12 01:26N 01°15' E 103°54'0 0.0
2017-Feb-12 00:32N 01°15' E 103°54'0 0.0
2017-Feb-11 23:32N 01°15' E 103°54'0 0.0
2017-Feb-11 22:32N 01°15' E 103°54'0 0.0
2017-Feb-11 21:32N 01°15' E 103°54'0 0.0
2017-Feb-11 20:32N 01°15' E 103°54'0 0.0
2017-Feb-11 19:32N 01°15' E 103°54'0 0.0
2017-Feb-11 18:32N 01°15' E 103°54'0 0.0
2017-Feb-11 17:26N 01°15' E 103°54'0 0.0
2017-Feb-11 16:32N 01°15' E 103°54'0 0.0
2017-Feb-11 15:32N 01°15' E 103°54'0 0.0
2017-Feb-11 14:32N 01°15' E 103°54'0 0.0
2017-Feb-11 13:32N 01°15' E 103°54'0 0.0
2017-Feb-11 12:32N 01°15' E 103°54'0 0.0
2017-Feb-11 11:32N 01°15' E 103°54'0 0.2
2017-Feb-11 10:32N 01°15' E 103°54'0 0.0
2017-Feb-11 09:26N 01°15' E 103°54'0 0.1
2017-Feb-11 08:32N 01°15' E 103°54'0 0.0
2017-Feb-11 07:29N 01°15' E 103°54'0 0.1
2017-Feb-11 06:32N 01°15' E 103°54'0 0.1
2017-Feb-11 05:32N 01°15' E 103°54'0 0.1
2017-Feb-11 04:32N 01°15' E 103°54'0 0.0
2017-Feb-11 03:32N 01°15' E 103°54'0 0.0
2017-Feb-11 02:29N 01°15' E 103°54'0 0.1
2017-Feb-11 01:32N 01°15' E 103°54'0 0.0
2017-Feb-11 00:29N 01°15' E 103°54'0 0.0
2017-Feb-10 23:32N 01°15' E 103°54'0 0.0
2017-Feb-10 22:29N 01°15' E 103°54'0 0.0
2017-Feb-10 21:32N 01°15' E 103°54'0 0.0
2017-Feb-10 20:32N 01°15' E 103°54'0 0.0
2017-Feb-10 19:32N 01°15' E 103°54'0 0.0
2017-Feb-10 18:32N 01°15' E 103°54'0 0.0
2017-Feb-10 17:32N 01°15' E 103°54'0 0.0
2017-Feb-10 16:32N 01°15' E 103°54'0 0.1
2017-Feb-10 15:26N 01°15' E 103°54'0 0.1
2017-Feb-10 14:26N 01°15' E 103°54'0 0.0
2017-Feb-10 13:32N 01°15' E 103°54'0 0.0
2017-Feb-10 12:32N 01°15' E 103°54'0 0.1
2017-Feb-10 11:32N 01°15' E 103°54'0 0.2
2017-Feb-10 10:29N 01°15' E 103°54'0 0.1
2017-Feb-10 09:26N 01°15' E 103°54'0 0.1
2017-Feb-10 08:26N 01°15' E 103°54'0 0.0
2017-Feb-10 07:26N 01°15' E 103°54'0 0.0
2017-Feb-10 06:32N 01°15' E 103°54'0 0.0
2017-Feb-10 05:29N 01°15' E 103°54'0 0.1
2017-Feb-10 04:32N 01°15' E 103°54'0 0.1
2017-Feb-10 03:29N 01°15' E 103°54'0 0.1
2017-Feb-10 02:32N 01°15' E 103°54'0 0.1
2017-Feb-10 01:29N 01°15' E 103°54'3 3.5
2017-Feb-10 00:33N 01°16' E 103°57'6 6.0
2017-Feb-09 23:32N 01°16' E 104°03'  

Dump ship's entire track history